createdAt,value
2024-01-05T00:02:04.319Z,99008.37
2024-01-05T00:05:31.589Z,99014.92
2024-01-05T00:08:56.324Z,99012.94
2024-01-05T00:12:19.402Z,99016.59
2024-01-05T00:15:54.976Z,99022.64
2024-01-05T00:19:25.992Z,99028.19
2024-01-05T00:23:05.494Z,99033.73
2024-01-05T00:26:36.632Z,99034.22
2024-01-05T00:30:05.855Z,99023.86
2024-01-05T00:33:35.690Z,99036.58
2024-01-05T00:52:13.702Z,99056.37
2024-01-05T01:00:11.920Z,99079.17
2024-01-05T01:03:46.585Z,99080.65
2024-01-05T01:07:26.988Z,99092.04
2024-01-05T01:10:56.978Z,99086.66
2024-01-05T01:14:26.327Z,99091.66
2024-01-05T01:18:02.292Z,99090.36
2024-01-05T01:21:37.682Z,99099.93
2024-01-05T02:04:19.500Z,99145.55
2024-01-05T02:07:59.902Z,99150.42
2024-01-05T02:11:31.614Z,99156.02
2024-01-05T02:15:14.584Z,99148.70
2024-01-05T02:18:53.306Z,99152.39
2024-01-05T02:22:36.274Z,99155.02
2024-01-05T02:26:05.796Z,99150.42
2024-01-05T02:29:38.218Z,99152.08
2024-01-05T02:33:11.022Z,99160.02
2024-01-05T02:36:45.437Z,99168.42
2024-01-05T03:12:47.307Z,99187.67
2024-01-05T03:20:25.275Z,99193.48
2024-01-05T03:24:01.625Z,99194.33
2024-01-05T03:50:31.490Z,99231.02
2024-01-05T03:54:11.446Z,99226.41
2024-01-05T03:57:40.856Z,99231.36
2024-01-05T04:01:14.896Z,99230.11
2024-01-05T04:04:49.085Z,99223.38
2024-01-05T04:12:29.272Z,99231.20
2024-01-05T04:28:15.665Z,99257.88
2024-01-05T04:31:46.013Z,99253.98
2024-01-05T04:35:22.662Z,99260.60
2024-01-05T04:38:53.217Z,99263.95
2024-01-05T04:42:23.842Z,99267.58
2024-01-05T04:45:54.841Z,99265.46
2024-01-05T04:49:31.699Z,99266.17
2024-01-05T04:53:31.449Z,99275.38
2024-01-05T04:57:19.076Z,99274.11
2024-01-05T05:05:21.656Z,99282.53
2024-01-05T05:08:59.599Z,99291.08
2024-01-05T05:12:36.939Z,99295.98
2024-01-05T05:20:04.343Z,99295.37
2024-01-05T05:44:16.402Z,99316.16
2024-01-05T05:48:06.517Z,99318.88
2024-01-05T05:51:56.893Z,99327.37
2024-01-05T06:24:01.833Z,99376.86
2024-01-05T06:27:40.497Z,99376.64
2024-01-05T06:31:14.628Z,99381.33
2024-01-05T06:45:48.411Z,99408.95
2024-01-05T06:49:25.555Z,99416.55
2024-01-05T06:52:58.644Z,99418.93
2024-01-05T06:56:31.289Z,99417.06
2024-01-05T07:04:18.667Z,99417.70
2024-01-05T07:07:57.797Z,99415.11
2024-01-05T07:11:44.806Z,99419.67
2024-01-05T07:15:38.732Z,99418.19
2024-01-05T07:19:24.157Z,99423.33
2024-01-05T07:27:13.149Z,99415.71
2024-01-05T07:30:50.638Z,99419.05
2024-01-05T07:34:21.915Z,99417.98
2024-01-05T07:37:58.658Z,99420.80
2024-01-05T07:41:28.635Z,99434.20
2024-01-05T07:45:04.740Z,99433.23
2024-01-05T07:48:36.347Z,99429.52
2024-01-05T07:54:37.550Z,99435.11
2024-01-05T07:55:44.438Z,99443.14
2024-01-05T07:59:16.476Z,99442.34
2024-01-05T08:02:55.606Z,99447.04
2024-01-05T08:29:45.317Z,99468.66
2024-01-05T08:36:54.867Z,99472.10
2024-01-05T09:18:31.515Z,99497.63
2024-01-05T09:25:43.398Z,99509.73
2024-01-05T09:29:04.716Z,99510.00
2024-01-05T09:49:18.840Z,99523.39
2024-01-05T09:53:35.659Z,99526.83
2024-01-05T11:14:04.039Z,99547.19
2024-01-05T11:17:52.384Z,99545.34
2024-01-05T11:21:20.810Z,99549.33
2024-01-05T11:24:50.770Z,99551.54
2024-01-05T11:28:19.997Z,99556.85
2024-01-05T11:31:43.531Z,99557.39
2024-01-05T11:35:18.538Z,99555.51
2024-01-05T11:38:36.489Z,99565.88
2024-01-05T11:41:43.646Z,99560.08
2024-01-05T11:45:02.361Z,99560.20
2024-01-05T11:48:33.598Z,99568.50
2024-01-05T11:51:55.697Z,99568.91
2024-01-05T11:55:21.846Z,99580.70
2024-01-05T12:03:02.634Z,99584.22
2024-01-05T12:06:31.428Z,99582.62
2024-01-05T12:10:01.335Z,99582.86
2024-01-05T12:13:30.973Z,99574.02
2024-01-05T12:16:56.201Z,99572.63
2024-01-05T12:20:19.656Z,99572.83
2024-01-05T12:23:48.624Z,99572.91
2024-01-05T12:31:12.880Z,99589.51
2024-01-05T12:34:48.712Z,99589.12
2024-01-05T12:38:03.804Z,99593.23
2024-01-05T12:41:25.727Z,99587.01
2024-01-05T12:44:47.727Z,99592.78
2024-01-05T12:48:10.406Z,99587.88
2024-01-05T12:51:47.734Z,99593.80
2024-01-05T12:55:22.650Z,99593.95
2024-01-05T12:58:51.884Z,99585.25
2024-01-05T13:02:13.036Z,99588.13
2024-01-05T13:05:18.827Z,99591.48
2024-01-05T13:08:47.260Z,99598.52
2024-01-05T13:12:05.514Z,99592.84
2024-01-05T13:15:36.302Z,99588.31
2024-01-05T13:19:07.602Z,99600.56
2024-01-05T13:22:42.008Z,99605.31
2024-01-05T13:26:12.556Z,99604.16
2024-01-05T13:29:42.460Z,99597.95
2024-01-05T13:33:21.855Z,99589.23
2024-01-05T13:36:53.042Z,99583.77
2024-01-05T13:40:31.388Z,99586.10
2024-01-05T13:44:03.454Z,99591.56
2024-01-05T13:47:34.165Z,99590.36
2024-01-05T13:51:13.560Z,99590.46
2024-01-05T13:55:18.696Z,99587.49
2024-01-05T14:03:20.557Z,99579.43
2024-01-05T14:15:07.465Z,99593.73
2024-01-05T14:18:34.607Z,99589.06
2024-01-05T14:22:02.852Z,99594.52
2024-01-05T14:25:20.715Z,99592.52
2024-01-05T14:28:50.493Z,99596.73
2024-01-05T14:32:20.668Z,99595.72
2024-01-05T14:35:44.520Z,99595.06
2024-01-05T14:39:17.990Z,99594.89
2024-01-05T14:42:38.484Z,99591.23
2024-01-05T14:46:08.495Z,99600.60
2024-01-05T14:49:29.448Z,99609.22
2024-01-05T14:52:37.637Z,99606.02
2024-01-05T14:56:02.179Z,99604.77
2024-01-05T14:59:33.548Z,99603.75
2024-01-05T15:03:03.651Z,99611.30
2024-01-05T15:06:26.128Z,99621.02
2024-01-05T15:09:47.938Z,99625.17
2024-01-05T15:13:07.465Z,99616.94
2024-01-05T15:16:28.866Z,99617.48
2024-01-05T15:19:43.330Z,99623.45
2024-01-05T15:22:58.552Z,99620.14
2024-01-05T15:26:27.717Z,99632.42
2024-01-05T15:29:51.450Z,99628.58
2024-01-05T15:34:04.807Z,99623.02
2024-01-05T15:41:08.169Z,99628.64
2024-01-05T15:44:36.278Z,99628.64
2024-01-05T15:48:06.956Z,99637.46
2024-01-05T15:51:36.136Z,99649.88
2024-01-05T15:55:05.935Z,99658.40
2024-01-05T15:58:36.998Z,99661.38
2024-01-05T16:02:06.080Z,99663.41
2024-01-05T16:05:30.100Z,99651.34
2024-01-05T16:08:58.877Z,99644.04
2024-01-05T16:12:21.983Z,99638.52
2024-01-05T16:15:43.538Z,99639.64
2024-01-05T16:19:06.989Z,99636.03
2024-01-05T16:22:35.299Z,99636.27
2024-01-05T16:26:59.519Z,99633.45
2024-01-05T16:29:49.353Z,99637.90
2024-01-05T16:33:13.568Z,99637.37
2024-01-05T16:36:19.853Z,99644.59
2024-01-05T16:39:48.840Z,99645.73
2024-01-05T16:43:09.987Z,99654.77
2024-01-05T16:46:36.942Z,99651.32
2024-01-05T16:49:59.464Z,99654.15
2024-01-05T16:53:29.210Z,99648.27
2024-01-05T16:56:57.969Z,99649.85
2024-01-05T17:00:22.096Z,99655.27
2024-01-05T17:03:36.208Z,99656.31
2024-01-05T17:06:58.921Z,99666.33
2024-01-05T17:10:28.189Z,99673.95
2024-01-05T17:13:42.598Z,99680.23
2024-01-05T17:17:03.574Z,99680.48
2024-01-05T17:20:36.090Z,99672.89
2024-01-05T17:24:06.479Z,99668.34
2024-01-05T17:27:37.878Z,99677.93
2024-01-05T17:30:51.031Z,99683.58
2024-01-05T17:34:21.835Z,99686.54
2024-01-05T17:37:55.048Z,99690.34
2024-01-05T17:41:17.269Z,99688.16
2024-01-05T17:44:49.621Z,99688.31
2024-01-05T17:48:06.257Z,99690.11
2024-01-05T17:51:37.076Z,99687.62
2024-01-05T17:55:07.354Z,99694.41
2024-01-05T17:58:35.636Z,99699.11
2024-01-05T18:01:59.647Z,99709.35
2024-01-05T18:05:28.226Z,99699.98
2024-01-05T18:08:56.961Z,99697.80
2024-01-05T18:12:23.222Z,99698.23
2024-01-05T18:15:45.949Z,99698.66
2024-01-05T18:19:19.835Z,99695.55
2024-01-05T18:22:48.449Z,99695.23
2024-01-05T18:26:21.570Z,99700.38
2024-01-05T18:29:54.020Z,99699.20
2024-01-05T18:33:22.385Z,99711.61
2024-01-05T18:36:36.343Z,99704.85
2024-01-05T18:40:06.141Z,99695.98
2024-01-05T18:43:36.089Z,99706.40
2024-01-05T18:47:06.140Z,99710.29
2024-01-05T18:50:37.405Z,99699.99
2024-01-05T18:54:06.170Z,99688.21
2024-01-05T18:57:40.646Z,99684.19
2024-01-05T19:01:07.913Z,99677.77
2024-01-05T19:04:23.578Z,99671.70
2024-01-05T19:07:44.475Z,99667.45
2024-01-05T19:11:12.560Z,99668.64
2024-01-05T19:14:28.521Z,99676.23
2024-01-05T19:17:50.180Z,99676.02
2024-01-05T19:21:16.976Z,99681.65
2024-01-05T19:24:46.966Z,99680.16
2024-01-05T19:28:10.270Z,99684.21
2024-01-05T19:31:38.540Z,99687.66
2024-01-05T19:35:02.535Z,99694.91
2024-01-05T19:38:30.354Z,99697.04
2024-01-05T19:42:01.262Z,99699.89
2024-01-05T19:45:34.257Z,99709.26
2024-01-05T19:49:04.099Z,99714.76
2024-01-05T19:52:27.407Z,99712.92
2024-01-05T19:56:01.827Z,99709.71
2024-01-05T19:59:24.726Z,99704.66
2024-01-05T20:02:38.248Z,99704.36
2024-01-05T20:06:14.095Z,99693.98
2024-01-05T20:09:45.907Z,99681.93
2024-01-05T20:13:14.038Z,99675.08
2024-01-05T20:16:43.396Z,99677.05
2024-01-05T20:20:05.264Z,99682.25
2024-01-05T20:23:36.585Z,99687.98
2024-01-05T20:27:06.694Z,99690.27
2024-01-05T20:30:36.435Z,99689.14
2024-01-05T20:33:52.329Z,99685.86
2024-01-05T20:40:43.380Z,99680.73
2024-01-05T20:44:15.302Z,99691.48
2024-01-05T20:47:37.342Z,99700.27
2024-01-05T20:51:09.942Z,99703.41
2024-01-05T20:54:44.157Z,99705.86
2024-01-05T20:58:13.324Z,99700.71
2024-01-05T21:01:35.402Z,99702.67
2024-01-05T21:04:54.850Z,99713.52
2024-01-05T21:08:03.387Z,99721.27
2024-01-05T21:11:33.615Z,99723.19
2024-01-05T21:15:02.887Z,99729.38
2024-01-05T21:18:30.954Z,99726.48
2024-01-05T21:21:51.228Z,99723.36
2024-01-05T21:25:12.336Z,99726.48
2024-01-05T21:28:32.892Z,99729.45
2024-01-05T21:31:49.403Z,99725.88
2024-01-05T21:35:21.868Z,99719.54
2024-01-05T21:39:08.448Z,99715.17
2024-01-05T21:42:38.644Z,99721.42
2024-01-05T21:45:44.769Z,99717.45
2024-01-05T21:49:13.522Z,99716.13
2024-01-05T21:52:48.317Z,99721.48
2024-01-05T21:56:13.636Z,99722.30
2024-01-05T21:59:27.368Z,99716.92
2024-01-05T22:02:46.376Z,99719.20
2024-01-05T22:06:16.688Z,99719.75
2024-01-05T22:09:46.829Z,99721.92
2024-01-05T22:13:20.715Z,99727.09
2024-01-05T22:16:51.576Z,99727.38
2024-01-05T22:20:19.856Z,99734.95
2024-01-05T22:23:49.806Z,99742.50
2024-01-05T22:27:20.038Z,99740.84
2024-01-05T22:30:41.352Z,99741.54
2024-01-05T22:34:06.398Z,99744.17
2024-01-05T22:37:36.817Z,99740.31
2024-01-05T22:40:53.552Z,99725.36
2024-01-05T22:44:22.982Z,99712.46
2024-01-05T22:47:44.785Z,99710.02
2024-01-05T22:51:06.471Z,99711.65
2024-01-05T22:54:26.521Z,99716.70
2024-01-05T22:57:55.189Z,99719.11
2024-01-05T23:01:45.471Z,99721.58
2024-01-05T23:05:19.535Z,99718.34
2024-01-05T23:08:48.566Z,99713.83
2024-01-05T23:12:17.856Z,99710.91
2024-01-05T23:15:45.664Z,99711.00
2024-01-05T23:19:16.133Z,99708.86
2024-01-05T23:22:32.297Z,99702.95
2024-01-05T23:25:53.468Z,99702.71
2024-01-05T23:29:15.039Z,99695.05
2024-01-05T23:33:11.799Z,99692.55
2024-01-05T23:36:43.220Z,99691.80
2024-01-05T23:45:04.995Z,99696.30
